sensor_id;sensor_type;location;lat;lon;timestamp;pressure;altitude;pressure_sealevel;temperature;humidity
61757;BME280;57225;61.460;24.060;2022-08-03T00:02:11;100059.56;;;9.04;89.55
61757;BME280;57225;61.460;24.060;2022-08-03T00:04:56;100056.78;;;9.04;89.36
61757;BME280;57225;61.460;24.060;2022-08-03T00:07:40;100063.56;;;9.03;88.64
61757;BME280;57225;61.460;24.060;2022-08-03T00:10:25;100073.47;;;8.97;88.37
61757;BME280;57225;61.460;24.060;2022-08-03T00:13:09;100065.91;;;8.94;89.12
61757;BME280;57225;61.460;24.060;2022-08-03T00:15:55;100077.06;;;8.98;88.54
61757;BME280;57225;61.460;24.060;2022-08-03T00:18:40;100080.59;;;8.95;88.69
61757;BME280;57225;61.460;24.060;2022-08-03T00:21:24;100085.75;;;8.93;88.43
61757;BME280;57225;61.460;24.060;2022-08-03T00:24:08;100082.56;;;8.87;88.65
61757;BME280;57225;61.460;24.060;2022-08-03T00:26:53;100089.72;;;8.84;88.22
61757;BME280;57225;61.460;24.060;2022-08-03T00:29:37;100079.41;;;8.85;89.27
61757;BME280;57225;61.460;24.060;2022-08-03T00:32:21;100088.16;;;8.91;89.45
61757;BME280;57225;61.460;24.060;2022-08-03T00:35:06;100086.94;;;8.92;89.46
61757;BME280;57225;61.460;24.060;2022-08-03T00:37:50;100088.13;;;8.87;89.20
61757;BME280;57225;61.460;24.060;2022-08-03T00:40:34;100090.50;;;8.92;89.46
61757;BME280;57225;61.460;24.060;2022-08-03T00:43:24;100092.91;;;8.90;89.47
61757;BME280;57225;61.460;24.060;2022-08-03T00:46:08;100082.59;;;8.94;89.66
61757;BME280;57225;61.460;24.060;2022-08-03T00:48:52;100084.19;;;8.99;89.72
61757;BME280;57225;61.460;24.060;2022-08-03T00:51:37;100076.25;;;9.01;89.85
61757;BME280;57225;61.460;24.060;2022-08-03T00:54:22;100086.97;;;9.06;90.78
61757;BME280;57225;61.460;24.060;2022-08-03T00:57:11;100073.47;;;8.97;90.50
61757;BME280;57225;61.460;24.060;2022-08-03T00:59:55;100081.81;;;9.04;90.83
61757;BME280;57225;61.460;24.060;2022-08-03T01:02:39;100087.75;;;8.99;91.15
61757;BME280;57225;61.460;24.060;2022-08-03T01:05:24;100093.72;;;9.01;91.69
61757;BME280;57225;61.460;24.060;2022-08-03T01:17:58;100085.00;;;9.06;91.85
61757;BME280;57225;61.460;24.060;2022-08-03T01:20:47;100082.59;;;9.05;92.02
61757;BME280;57225;61.460;24.060;2022-08-03T01:23:46;100078.25;;;9.04;92.43
61757;BME280;57225;61.460;24.060;2022-08-03T01:26:51;100090.16;;;9.01;92.68
61757;BME280;57225;61.460;24.060;2022-08-03T01:33:09;100084.97;;;8.99;92.56
61757;BME280;57225;61.460;24.060;2022-08-03T01:36:02;100073.06;;;8.99;93.30
61757;BME280;57225;61.460;24.060;2022-08-03T01:38:58;100077.81;;;8.98;93.52
61757;BME280;57225;61.460;24.060;2022-08-03T01:41:56;100065.94;;;8.98;93.58
61757;BME280;57225;61.460;24.060;2022-08-03T01:44:43;100081.03;;;8.97;94.04
61757;BME280;57225;61.460;24.060;2022-08-03T01:47:29;100070.69;;;8.97;94.19
61757;BME280;57225;61.460;24.060;2022-08-03T01:50:17;100084.97;;;8.99;93.99
61757;BME280;57225;61.460;24.060;2022-08-03T01:53:04;100090.94;;;9.01;94.52
61757;BME280;57225;61.460;24.060;2022-08-03T01:55:53;100079.84;;;9.08;94.13
61757;BME280;57225;61.460;24.060;2022-08-03T01:58:42;100086.63;;;9.14;94.40
61757;BME280;57225;61.460;24.060;2022-08-03T02:01:28;100085.44;;;9.19;94.47
61757;BME280;57225;61.460;24.060;2022-08-03T02:04:16;100093.00;;;9.25;93.89
61757;BME280;57225;61.460;24.060;2022-08-03T02:07:01;100081.09;;;9.36;93.66
61757;BME280;57225;61.460;24.060;2022-08-03T02:09:49;100085.06;;;9.45;94.09
61757;BME280;57225;61.460;24.060;2022-08-03T02:12:36;100085.47;;;9.58;93.61
61757;BME280;57225;61.460;24.060;2022-08-03T02:15:22;100088.66;;;9.63;92.40
61757;BME280;57225;61.460;24.060;2022-08-03T02:18:08;100090.63;;;9.77;91.77
61757;BME280;57225;61.460;24.060;2022-08-03T02:20:54;100092.22;;;9.85;91.13
61757;BME280;57225;61.460;24.060;2022-08-03T02:23:39;100085.84;;;9.95;90.10
61757;BME280;57225;61.460;24.060;2022-08-03T02:26:28;100092.59;;;10.08;90.41
61757;BME280;57225;61.460;24.060;2022-08-03T02:29:15;100089.81;;;10.19;91.11
61757;BME280;57225;61.460;24.060;2022-08-03T02:32:02;100084.22;;;10.30;90.99
61757;BME280;57225;61.460;24.060;2022-08-03T02:34:49;100091.34;;;10.45;89.15
61757;BME280;57225;61.460;24.060;2022-08-03T02:37:40;100091.31;;;10.52;88.82
61757;BME280;57225;61.460;24.060;2022-08-03T02:40:27;100074.56;;;10.59;88.73
61757;BME280;57225;61.460;24.060;2022-08-03T02:43:17;100084.50;;;10.64;88.72
61757;BME280;57225;61.460;24.060;2022-08-03T02:46:04;100057.09;;;10.48;89.35
61757;BME280;57225;61.460;24.060;2022-08-03T02:48:50;100084.09;;;10.65;88.43
61757;BME280;57225;61.460;24.060;2022-08-03T02:51:36;100077.69;;;10.72;87.96
61757;BME280;57225;61.460;24.060;2022-08-03T02:54:23;100078.91;;;10.74;88.34
61757;BME280;57225;61.460;24.060;2022-08-03T02:57:10;100081.25;;;10.79;87.96
61757;BME280;57225;61.460;24.060;2022-08-03T02:59:56;100076.06;;;10.81;88.06
61757;BME280;57225;61.460;24.060;2022-08-03T03:02:41;100069.69;;;10.84;87.99
61757;BME280;57225;61.460;24.060;2022-08-03T03:05:25;100074.81;;;10.89;88.20
61757;BME280;57225;61.460;24.060;2022-08-03T03:08:12;100068.81;;;10.95;87.59
61757;BME280;57225;61.460;24.060;2022-08-03T03:10:59;100069.19;;;11.04;87.39
61757;BME280;57225;61.460;24.060;2022-08-03T03:13:44;100056.78;;;11.08;87.38
61757;BME280;57225;61.460;24.060;2022-08-03T03:16:30;100061.94;;;11.17;87.08
61757;BME280;57225;61.460;24.060;2022-08-03T03:19:15;100073.44;;;11.22;86.73
61757;BME280;57225;61.460;24.060;2022-08-03T03:22:01;100068.63;;;11.30;86.98
61757;BME280;57225;61.460;24.060;2022-08-03T03:24:48;100063.78;;;11.34;87.81
61757;BME280;57225;61.460;24.060;2022-08-03T03:27:34;100067.72;;;11.40;87.23
61757;BME280;57225;61.460;24.060;2022-08-03T03:30:19;100069.72;;;11.43;86.11
61757;BME280;57225;61.460;24.060;2022-08-03T03:33:04;100066.47;;;11.48;86.08
61757;BME280;57225;61.460;24.060;2022-08-03T03:35:49;100076.00;;;11.54;86.73
61757;BME280;57225;61.460;24.060;2022-08-03T03:38:35;100072.38;;;11.57;86.99
61757;BME280;57225;61.460;24.060;2022-08-03T03:41:19;100069.91;;;11.66;87.22
61757;BME280;57225;61.460;24.060;2022-08-03T03:44:04;100068.28;;;11.73;87.45
61757;BME280;57225;61.460;24.060;2022-08-03T03:46:48;100075.81;;;11.79;87.59
61757;BME280;57225;61.460;24.060;2022-08-03T03:49:33;100078.50;;;11.90;87.48
61757;BME280;57225;61.460;24.060;2022-08-03T03:52:17;100064.81;;;12.02;88.13
61757;BME280;57225;61.460;24.060;2022-08-03T03:55:02;100073.47;;;12.15;87.74
61757;BME280;57225;61.460;24.060;2022-08-03T03:57:46;100063.75;;;12.30;88.19
61757;BME280;57225;61.460;24.060;2022-08-03T04:00:30;100073.56;;;12.45;87.93
61757;BME280;57225;61.460;24.060;2022-08-03T04:03:14;100067.84;;;12.56;87.63
61757;BME280;57225;61.460;24.060;2022-08-03T04:05:59;100076.00;;;12.74;87.48
61757;BME280;57225;61.460;24.060;2022-08-03T04:09:02;100066.56;;;12.91;87.90
61757;BME280;57225;61.460;24.060;2022-08-03T04:12:06;100056.41;;;13.04;87.24
61757;BME280;57225;61.460;24.060;2022-08-03T04:14:54;100065.75;;;13.24;87.30
61757;BME280;57225;61.460;24.060;2022-08-03T04:17:40;100080.75;;;13.38;87.22
61757;BME280;57225;61.460;24.060;2022-08-03T04:20:29;100068.56;;;13.48;87.07
61757;BME280;57225;61.460;24.060;2022-08-03T04:23:15;100065.19;;;13.60;86.88
61757;BME280;57225;61.460;24.060;2022-08-03T04:26:03;100065.06;;;13.67;87.39
61757;BME280;57225;61.460;24.060;2022-08-03T04:28:51;100056.97;;;13.73;87.58
61757;BME280;57225;61.460;24.060;2022-08-03T04:31:38;100057.28;;;13.78;87.18
61757;BME280;57225;61.460;24.060;2022-08-03T04:34:22;100060.09;;;13.78;88.13
61757;BME280;57225;61.460;24.060;2022-08-03T04:37:13;100065.63;;;13.82;87.84
61757;BME280;57225;61.460;24.060;2022-08-03T04:40:01;100079.22;;;13.83;88.10
61757;BME280;57225;61.460;24.060;2022-08-03T04:42:47;100076.22;;;13.94;87.81
61757;BME280;57225;61.460;24.060;2022-08-03T04:45:33;100075.69;;;14.02;87.19
61757;BME280;57225;61.460;24.060;2022-08-03T04:48:18;100081.16;;;14.09;86.77
61757;BME280;57225;61.460;24.060;2022-08-03T04:51:03;100078.56;;;14.19;86.64
61757;BME280;57225;61.460;24.060;2022-08-03T04:53:48;100080.41;;;14.29;86.23
61757;BME280;57225;61.460;24.060;2022-08-03T04:56:33;100077.41;;;14.39;85.36
61757;BME280;57225;61.460;24.060;2022-08-03T04:59:17;100080.00;;;14.50;84.74
61757;BME280;57225;61.460;24.060;2022-08-03T05:02:02;100074.63;;;14.59;85.22
61757;BME280;57225;61.460;24.060;2022-08-03T05:04:47;100080.16;;;14.82;84.31
61757;BME280;57225;61.460;24.060;2022-08-03T05:07:31;100083.28;;;15.04;83.78
61757;BME280;57225;61.460;24.060;2022-08-03T05:10:16;100084.63;;;15.16;82.66
61757;BME280;57225;61.460;24.060;2022-08-03T05:13:00;100085.28;;;15.23;82.84
61757;BME280;57225;61.460;24.060;2022-08-03T05:15:45;100085.41;;;15.52;81.64
61757;BME280;57225;61.460;24.060;2022-08-03T05:18:29;100088.66;;;16.16;78.85
61757;BME280;57225;61.460;24.060;2022-08-03T05:21:13;100088.59;;;16.32;77.80
61757;BME280;57225;61.460;24.060;2022-08-03T05:23:59;100081.50;;;16.27;78.08
61757;BME280;57225;61.460;24.060;2022-08-03T05:26:44;100086.88;;;16.22;78.37
61757;BME280;57225;61.460;24.060;2022-08-03T05:29:28;100086.25;;;16.14;79.22
61757;BME280;57225;61.460;24.060;2022-08-03T05:32:13;100085.75;;;16.03;80.06
61757;BME280;57225;61.460;24.060;2022-08-03T05:34:58;100094.91;;;15.91;80.55
61757;BME280;57225;61.460;24.060;2022-08-03T05:37:42;100101.94;;;15.83;81.73
61757;BME280;57225;61.460;24.060;2022-08-03T05:40:27;100102.97;;;15.89;81.63
61757;BME280;57225;61.460;24.060;2022-08-03T05:43:12;100095.53;;;15.98;82.25
61757;BME280;57225;61.460;24.060;2022-08-03T05:45:56;100091.75;;;16.05;81.57
61757;BME280;57225;61.460;24.060;2022-08-03T05:48:42;100097.03;;;16.32;81.05
61757;BME280;57225;61.460;24.060;2022-08-03T05:51:26;100086.78;;;16.54;80.82
61757;BME280;57225;61.460;24.060;2022-08-03T05:54:11;100091.22;;;16.97;78.77
61757;BME280;57225;61.460;24.060;2022-08-03T05:56:56;100086.06;;;17.20;76.72
61757;BME280;57225;61.460;24.060;2022-08-03T05:59:41;100090.25;;;17.54;76.75
61757;BME280;57225;61.460;24.060;2022-08-03T06:02:26;100090.44;;;17.97;75.61
61757;BME280;57225;61.460;24.060;2022-08-03T06:05:10;100080.53;;;18.27;74.64
61757;BME280;57225;61.460;24.060;2022-08-03T06:07:54;100086.47;;;18.76;72.75
61757;BME280;57225;61.460;24.060;2022-08-03T06:10:38;100084.19;;;18.84;71.52
61757;BME280;57225;61.460;24.060;2022-08-03T06:13:23;100082.97;;;18.94;72.05
61757;BME280;57225;61.460;24.060;2022-08-03T06:16:07;100081.81;;;18.82;71.78
61757;BME280;57225;61.460;24.060;2022-08-03T06:18:51;100082.59;;;18.61;72.80
61757;BME280;57225;61.460;24.060;2022-08-03T06:21:36;100082.28;;;18.46;73.91
61757;BME280;57225;61.460;24.060;2022-08-03T06:24:20;100085.16;;;18.34;75.08
61757;BME280;57225;61.460;24.060;2022-08-03T06:27:05;100082.59;;;18.61;75.36
61757;BME280;57225;61.460;24.060;2022-08-03T06:29:49;100091.13;;;18.70;74.88
61757;BME280;57225;61.460;24.060;2022-08-03T06:32:33;100089.09;;;18.93;75.03
61757;BME280;57225;61.460;24.060;2022-08-03T06:35:18;100091.63;;;19.21;73.58
61757;BME280;57225;61.460;24.060;2022-08-03T06:38:02;100082.34;;;19.52;72.28
61757;BME280;57225;61.460;24.060;2022-08-03T06:40:46;100094.59;;;19.98;71.96
61757;BME280;57225;61.460;24.060;2022-08-03T06:43:31;100091.84;;;20.43;70.66
61757;BME280;57225;61.460;24.060;2022-08-03T06:46:19;100094.97;;;20.91;68.87
61757;BME280;57225;61.460;24.060;2022-08-03T06:49:03;100102.81;;;21.05;66.72
61757;BME280;57225;61.460;24.060;2022-08-03T06:51:48;100104.34;;;21.34;65.90
61757;BME280;57225;61.460;24.060;2022-08-03T06:54:34;100106.84;;;21.32;65.35
61757;BME280;57225;61.460;24.060;2022-08-03T06:57:19;100103.59;;;21.57;65.74
61757;BME280;57225;61.460;24.060;2022-08-03T07:00:03;100096.09;;;21.78;65.03
61757;BME280;57225;61.460;24.060;2022-08-03T07:02:48;100111.09;;;22.35;64.60
61757;BME280;57225;61.460;24.060;2022-08-03T07:05:32;100111.44;;;22.28;61.63
61757;BME280;57225;61.460;24.060;2022-08-03T07:08:18;100120.69;;;22.14;62.39
61757;BME280;57225;61.460;24.060;2022-08-03T07:11:02;100109.94;;;22.18;61.34
61757;BME280;57225;61.460;24.060;2022-08-03T07:13:46;100115.97;;;22.11;60.88
61757;BME280;57225;61.460;24.060;2022-08-03T07:16:30;100119.41;;;22.38;60.67
61757;BME280;57225;61.460;24.060;2022-08-03T07:19:15;100107.84;;;22.66;59.39
61757;BME280;57225;61.460;24.060;2022-08-03T07:21:59;100108.50;;;22.61;59.16
61757;BME280;57225;61.460;24.060;2022-08-03T07:24:43;100097.00;;;22.79;60.22
61757;BME280;57225;61.460;24.060;2022-08-03T07:27:28;100104.59;;;23.11;59.54
61757;BME280;57225;61.460;24.060;2022-08-03T07:30:14;100089.97;;;23.33;59.22
61757;BME280;57225;61.460;24.060;2022-08-03T07:32:59;100087.22;;;23.39;58.45
61757;BME280;57225;61.460;24.060;2022-08-03T07:35:43;100081.03;;;23.55;56.99
61757;BME280;57225;61.460;24.060;2022-08-03T07:38:28;100086.25;;;23.56;58.10
61757;BME280;57225;61.460;24.060;2022-08-03T07:41:12;100071.09;;;23.65;57.60
61757;BME280;57225;61.460;24.060;2022-08-03T07:43:56;100075.41;;;23.75;56.63
61757;BME280;57225;61.460;24.060;2022-08-03T07:46:41;100072.78;;;23.92;56.34
61757;BME280;57225;61.460;24.060;2022-08-03T07:49:25;100066.38;;;23.77;55.25
61757;BME280;57225;61.460;24.060;2022-08-03T07:52:09;100064.91;;;23.67;57.81
61757;BME280;57225;61.460;24.060;2022-08-03T07:55:12;100067.97;;;23.63;56.22
61757;BME280;57225;61.460;24.060;2022-08-03T07:58:08;100065.13;;;23.63;57.74
61757;BME280;57225;61.460;24.060;2022-08-03T08:00:55;100061.91;;;23.55;58.51
61757;BME280;57225;61.460;24.060;2022-08-03T08:03:39;100059.09;;;23.76;58.07
61757;BME280;57225;61.460;24.060;2022-08-03T08:06:23;100060.72;;;23.62;56.91
61757;BME280;57225;61.460;24.060;2022-08-03T08:09:07;100069.47;;;23.79;55.02
61757;BME280;57225;61.460;24.060;2022-08-03T08:11:52;100067.81;;;24.07;54.56
61757;BME280;57225;61.460;24.060;2022-08-03T08:14:36;100074.59;;;24.50;55.26
61757;BME280;57225;61.460;24.060;2022-08-03T08:17:21;100073.53;;;24.48;53.81
61757;BME280;57225;61.460;24.060;2022-08-03T08:20:05;100075.44;;;24.56;52.36
61757;BME280;57225;61.460;24.060;2022-08-03T08:22:50;100075.03;;;24.43;53.34
61757;BME280;57225;61.460;24.060;2022-08-03T08:25:35;100075.38;;;24.51;51.84
61757;BME280;57225;61.460;24.060;2022-08-03T08:28:21;100078.44;;;24.47;52.65
61757;BME280;57225;61.460;24.060;2022-08-03T08:31:05;100083.22;;;24.35;53.76
61757;BME280;57225;61.460;24.060;2022-08-03T08:33:50;100080.84;;;24.54;54.06
61757;BME280;57225;61.460;24.060;2022-08-03T08:36:35;100084.50;;;24.55;54.03
61757;BME280;57225;61.460;24.060;2022-08-03T08:39:19;100085.31;;;24.00;53.29
61757;BME280;57225;61.460;24.060;2022-08-03T08:42:03;100080.09;;;23.14;56.17
61757;BME280;57225;61.460;24.060;2022-08-03T08:44:48;100090.63;;;22.84;57.54
61757;BME280;57225;61.460;24.060;2022-08-03T08:47:33;100085.84;;;22.75;57.83
61757;BME280;57225;61.460;24.060;2022-08-03T08:50:20;100097.56;;;22.68;57.80
61757;BME280;57225;61.460;24.060;2022-08-03T08:53:06;100089.38;;;22.85;58.02
61757;BME280;57225;61.460;24.060;2022-08-03T08:55:54;100093.06;;;22.76;57.43
61757;BME280;57225;61.460;24.060;2022-08-03T08:58:51;100082.91;;;22.84;59.01
61757;BME280;57225;61.460;24.060;2022-08-03T09:01:35;100080.94;;;23.35;57.09
61757;BME280;57225;61.460;24.060;2022-08-03T09:04:20;100085.25;;;23.94;55.85
61757;BME280;57225;61.460;24.060;2022-08-03T09:07:04;100078.50;;;24.12;54.74
61757;BME280;57225;61.460;24.060;2022-08-03T09:09:49;100095.63;;;23.97;53.75
61757;BME280;57225;61.460;24.060;2022-08-03T09:12:49;100094.94;;;23.68;55.50
61757;BME280;57225;61.460;24.060;2022-08-03T09:15:34;100099.19;;;23.13;55.53
61757;BME280;57225;61.460;24.060;2022-08-03T09:18:28;100086.63;;;23.49;55.83
61757;BME280;57225;61.460;24.060;2022-08-03T09:21:27;100105.75;;;24.33;52.10
61757;BME280;57225;61.460;24.060;2022-08-03T09:24:20;100094.84;;;24.32;52.91
61757;BME280;57225;61.460;24.060;2022-08-03T09:27:10;100094.94;;;24.83;52.11
61757;BME280;57225;61.460;24.060;2022-08-03T09:29:56;100091.41;;;25.20;49.08
61757;BME280;57225;61.460;24.060;2022-08-03T09:32:41;100096.06;;;25.80;49.61
61757;BME280;57225;61.460;24.060;2022-08-03T09:35:27;100093.50;;;25.82;48.17
61757;BME280;57225;61.460;24.060;2022-08-03T09:38:13;100096.19;;;25.29;48.47
61757;BME280;57225;61.460;24.060;2022-08-03T09:40:58;100089.22;;;24.37;49.52
61757;BME280;57225;61.460;24.060;2022-08-03T09:43:46;100094.53;;;24.50;50.92
61757;BME280;57225;61.460;24.060;2022-08-03T09:46:30;100101.47;;;24.43;52.02
61757;BME280;57225;61.460;24.060;2022-08-03T09:49:16;100099.72;;;24.11;51.75
61757;BME280;57225;61.460;24.060;2022-08-03T09:52:14;100095.28;;;24.10;53.15
61757;BME280;57225;61.460;24.060;2022-08-03T09:54:59;100091.63;;;24.44;51.21
61757;BME280;57225;61.460;24.060;2022-08-03T09:57:45;100076.97;;;24.31;51.30
61757;BME280;57225;61.460;24.060;2022-08-03T10:00:30;100086.22;;;24.47;51.96
61757;BME280;57225;61.460;24.060;2022-08-03T10:03:14;100080.94;;;24.19;51.52
61757;BME280;57225;61.460;24.060;2022-08-03T10:06:16;100092.50;;;24.30;52.50
61757;BME280;57225;61.460;24.060;2022-08-03T10:09:06;100083.34;;;24.06;52.57
61757;BME280;57225;61.460;24.060;2022-08-03T10:11:51;100066.66;;;24.60;52.84
61757;BME280;57225;61.460;24.060;2022-08-03T10:14:40;100066.22;;;25.50;49.99
61757;BME280;57225;61.460;24.060;2022-08-03T10:17:25;100071.94;;;25.50;48.82
61757;BME280;57225;61.460;24.060;2022-08-03T10:20:09;100071.69;;;25.16;49.58
61757;BME280;57225;61.460;24.060;2022-08-03T10:22:54;100064.38;;;24.64;50.19
61757;BME280;57225;61.460;24.060;2022-08-03T10:25:39;100061.16;;;25.28;49.37
61757;BME280;57225;61.460;24.060;2022-08-03T10:28:24;100058.75;;;25.52;47.11
61757;BME280;57225;61.460;24.060;2022-08-03T10:31:10;100059.53;;;25.53;47.98
61757;BME280;57225;61.460;24.060;2022-08-03T10:33:56;100058.84;;;25.63;48.61
61757;BME280;57225;61.460;24.060;2022-08-03T10:36:42;100072.97;;;25.78;48.69
61757;BME280;57225;61.460;24.060;2022-08-03T10:39:29;100072.88;;;25.36;49.56
61757;BME280;57225;61.460;24.060;2022-08-03T10:42:13;100069.09;;;25.18;49.97
61757;BME280;57225;61.460;24.060;2022-08-03T10:45:03;100078.22;;;25.54;49.01
61757;BME280;57225;61.460;24.060;2022-08-03T10:47:49;100081.31;;;25.56;46.99
61757;BME280;57225;61.460;24.060;2022-08-03T10:50:34;100075.16;;;25.00;47.57
61757;BME280;57225;61.460;24.060;2022-08-03T10:53:36;100071.78;;;25.28;49.12
61757;BME280;57225;61.460;24.060;2022-08-03T11:03:08;100065.16;;;25.42;48.39
61757;BME280;57225;61.460;24.060;2022-08-03T11:06:16;100071.78;;;25.59;47.37
61757;BME280;57225;61.460;24.060;2022-08-03T11:11:55;100063.34;;;25.81;43.10
61757;BME280;57225;61.460;24.060;2022-08-03T11:14:48;100072.19;;;26.26;42.32
61757;BME280;57225;61.460;24.060;2022-08-03T11:17:34;100065.97;;;26.27;42.33
61757;BME280;57225;61.460;24.060;2022-08-03T11:26:27;100065.66;;;27.07;42.21
61757;BME280;57225;61.460;24.060;2022-08-03T11:29:29;100079.78;;;26.40;40.72
61757;BME280;57225;61.460;24.060;2022-08-03T11:35:24;100076.63;;;26.32;41.65
61757;BME280;57225;61.460;24.060;2022-08-03T11:38:10;100072.59;;;26.08;42.41
61757;BME280;57225;61.460;24.060;2022-08-03T11:40:54;100072.53;;;26.50;42.30
61757;BME280;57225;61.460;24.060;2022-08-03T11:46:36;100078.13;;;26.87;41.26
61757;BME280;57225;61.460;24.060;2022-08-03T11:49:21;100070.97;;;26.43;40.93
61757;BME280;57225;61.460;24.060;2022-08-03T11:52:07;100076.75;;;26.60;41.64
61757;BME280;57225;61.460;24.060;2022-08-03T11:54:53;100072.31;;;26.59;41.69
61757;BME280;57225;61.460;24.060;2022-08-03T11:57:38;100079.28;;;25.99;42.65
61757;BME280;57225;61.460;24.060;2022-08-03T12:00:31;100076.97;;;25.97;43.25
61757;BME280;57225;61.460;24.060;2022-08-03T12:03:17;100067.84;;;25.93;42.50
61757;BME280;57225;61.460;24.060;2022-08-03T12:06:01;100079.47;;;26.27;41.53
61757;BME280;57225;61.460;24.060;2022-08-03T12:08:47;100082.16;;;26.41;41.46
61757;BME280;57225;61.460;24.060;2022-08-03T12:11:31;100077.94;;;26.37;41.87
61757;BME280;57225;61.460;24.060;2022-08-03T12:14:18;100078.56;;;26.63;40.85
61757;BME280;57225;61.460;24.060;2022-08-03T12:17:02;100082.50;;;26.82;40.43
61757;BME280;57225;61.460;24.060;2022-08-03T12:19:47;100080.94;;;26.70;39.28
61757;BME280;57225;61.460;24.060;2022-08-03T12:22:32;100071.66;;;26.98;40.05
61757;BME280;57225;61.460;24.060;2022-08-03T12:25:22;100063.59;;;27.07;39.81
61757;BME280;57225;61.460;24.060;2022-08-03T12:31:02;100073.75;;;27.47;38.12
61757;BME280;57225;61.460;24.060;2022-08-03T12:34:04;100065.69;;;27.29;36.73
61757;BME280;57225;61.460;24.060;2022-08-03T12:36:54;100061.25;;;27.45;37.44
61757;BME280;57225;61.460;24.060;2022-08-03T12:39:58;100050.84;;;27.14;36.97
61757;BME280;57225;61.460;24.060;2022-08-03T12:42:47;100058.41;;;27.28;37.47
61757;BME280;57225;61.460;24.060;2022-08-03T12:45:31;100048.00;;;27.36;36.39
61757;BME280;57225;61.460;24.060;2022-08-03T12:48:17;100050.31;;;27.32;36.37
61757;BME280;57225;61.460;24.060;2022-08-03T12:51:09;100056.31;;;27.45;36.61
61757;BME280;57225;61.460;24.060;2022-08-03T12:53:56;100053.16;;;27.82;36.99
61757;BME280;57225;61.460;24.060;2022-08-03T13:00:13;100064.84;;;27.90;35.87
61757;BME280;57225;61.460;24.060;2022-08-03T13:03:00;100050.34;;;27.54;35.61
61757;BME280;57225;61.460;24.060;2022-08-03T13:05:45;100049.25;;;27.80;34.72
61757;BME280;57225;61.460;24.060;2022-08-03T13:08:29;100045.09;;;27.70;34.77
61757;BME280;57225;61.460;24.060;2022-08-03T13:11:25;100042.66;;;28.13;36.06
61757;BME280;57225;61.460;24.060;2022-08-03T13:14:10;100059.06;;;28.12;35.71
61757;BME280;57225;61.460;24.060;2022-08-03T13:16:55;100048.47;;;28.54;35.32
61757;BME280;57225;61.460;24.060;2022-08-03T13:19:39;100056.44;;;28.25;35.33
61757;BME280;57225;61.460;24.060;2022-08-03T13:22:26;100054.69;;;27.89;35.13
61757;BME280;57225;61.460;24.060;2022-08-03T13:25:11;100050.22;;;28.10;35.77
61757;BME280;57225;61.460;24.060;2022-08-03T13:27:56;100041.47;;;27.64;36.13
61757;BME280;57225;61.460;24.060;2022-08-03T13:30:41;100049.81;;;27.28;36.02
61757;BME280;57225;61.460;24.060;2022-08-03T13:33:26;100061.78;;;27.21;36.52
61757;BME280;57225;61.460;24.060;2022-08-03T13:36:11;100048.19;;;26.77;37.02
61757;BME280;57225;61.460;24.060;2022-08-03T13:38:55;100054.81;;;26.24;38.93
61757;BME280;57225;61.460;24.060;2022-08-03T13:41:40;100059.09;;;25.60;40.12
61757;BME280;57225;61.460;24.060;2022-08-03T13:44:24;100049.53;;;25.37;41.94
61757;BME280;57225;61.460;24.060;2022-08-03T13:47:08;100047.72;;;25.71;41.17
61757;BME280;57225;61.460;24.060;2022-08-03T13:49:53;100056.06;;;25.80;41.17
61757;BME280;57225;61.460;24.060;2022-08-03T13:52:37;100058.88;;;25.38;42.11
61757;BME280;57225;61.460;24.060;2022-08-03T13:55:22;100049.81;;;25.71;42.88
61757;BME280;57225;61.460;24.060;2022-08-03T13:58:06;100052.91;;;25.67;42.33
61757;BME280;57225;61.460;24.060;2022-08-03T14:00:52;100048.50;;;25.35;42.60
61757;BME280;57225;61.460;24.060;2022-08-03T14:03:37;100053.31;;;25.54;43.40
61757;BME280;57225;61.460;24.060;2022-08-03T14:06:21;100056.66;;;25.53;42.90
61757;BME280;57225;61.460;24.060;2022-08-03T14:09:05;100045.78;;;25.20;43.95
61757;BME280;57225;61.460;24.060;2022-08-03T14:11:50;100053.13;;;25.01;44.92
61757;BME280;57225;61.460;24.060;2022-08-03T14:14:34;100053.66;;;24.79;45.63
61757;BME280;57225;61.460;24.060;2022-08-03T14:17:19;100049.66;;;24.65;46.69
61757;BME280;57225;61.460;24.060;2022-08-03T14:20:03;100042.19;;;24.07;48.22
61757;BME280;57225;61.460;24.060;2022-08-03T14:22:49;100040.25;;;23.98;48.84
61757;BME280;57225;61.460;24.060;2022-08-03T14:25:34;100052.41;;;23.79;48.49
61757;BME280;57225;61.460;24.060;2022-08-03T14:28:20;100061.16;;;23.75;48.80
61757;BME280;57225;61.460;24.060;2022-08-03T14:31:05;100049.84;;;23.81;48.32
61757;BME280;57225;61.460;24.060;2022-08-03T14:33:50;100042.28;;;23.78;49.30
61757;BME280;57225;61.460;24.060;2022-08-03T14:36:34;100048.16;;;23.89;49.16
61757;BME280;57225;61.460;24.060;2022-08-03T14:39:18;100041.63;;;23.83;48.86
61757;BME280;57225;61.460;24.060;2022-08-03T14:42:03;100043.78;;;23.73;50.16
61757;BME280;57225;61.460;24.060;2022-08-03T14:44:47;100041.66;;;23.68;51.01
61757;BME280;57225;61.460;24.060;2022-08-03T14:47:31;100039.72;;;23.45;51.12
61757;BME280;57225;61.460;24.060;2022-08-03T14:50:16;100039.19;;;23.11;51.91
61757;BME280;57225;61.460;24.060;2022-08-03T14:53:00;100037.31;;;23.23;52.33
61757;BME280;57225;61.460;24.060;2022-08-03T14:55:45;100052.91;;;23.13;52.44
61757;BME280;57225;61.460;24.060;2022-08-03T14:58:30;100045.84;;;23.23;52.36
61757;BME280;57225;61.460;24.060;2022-08-03T15:01:15;100040.94;;;23.09;52.34